Time;durP1;ratioP1;P1;durP2;ratioP2;P2;SDS_P1;SDS_P2;PMS_P1;PMS_P2;Temp;Humidity;BMP_temperature;BMP_pressure;BME280_temperature;BME280_humidity;BME280_pressure;Samples;Min_cycle;Max_cycle;Signal;HPM_P1;HPM_P2
2022/03/10 00:02:21;;;;;;;;;68.00;53.60;25.00;99.90;;;;;;5033979;28;8782;-62
2022/03/10 00:04:47;;;;;;;;;71.50;56.00;25.00;99.90;;;;;;5019051;28;8763;-62
2022/03/10 00:07:14;;;;;;;;;63.75;52.50;25.00;99.90;;;;;;5019501;28;8743;-63
2022/03/10 00:09:41;;;;;;;;;66.75;53.25;25.10;99.90;;;;;;5034084;28;8747;-62
2022/03/10 00:12:07;;;;;;;;;74.20;62.60;25.00;99.90;;;;;;5018863;28;8941;-63
2022/03/10 00:14:34;;;;;;;;;76.00;64.80;24.90;99.90;;;;;;5018459;28;8775;-62
2022/03/10 00:17:01;;;;;;;;;78.80;65.20;25.00;99.90;;;;;;5018916;28;8877;-62
2022/03/10 00:19:27;;;;;;;;;80.20;67.60;25.00;99.90;;;;;;5033892;28;8761;-62
2022/03/10 00:21:54;;;;;;;;;73.00;63.40;25.00;99.90;;;;;;5019612;28;8753;-63
2022/03/10 00:24:21;;;;;;;;;82.80;77.20;25.00;99.90;;;;;;5033670;28;8763;-62
2022/03/10 00:26:48;;;;;;;;;75.80;67.00;25.00;99.90;;;;;;5029002;28;8778;-62
2022/03/10 00:29:14;;;;;;;;;72.20;61.00;25.10;99.90;;;;;;4997834;28;8785;-63
2022/03/10 00:31:41;;;;;;;;;74.60;64.40;25.10;99.90;;;;;;4998298;28;8824;-62
2022/03/10 00:34:08;;;;;;;;;71.40;61.60;25.10;99.90;;;;;;4997268;28;8793;-62
2022/03/10 00:36:35;;;;;;;;;74.20;62.20;25.10;99.90;;;;;;4997404;28;8773;-63
2022/03/10 00:39:03;;;;;;;;;78.00;68.80;25.20;99.90;;;;;;4997927;28;9203;-63
2022/03/10 00:41:29;;;;;;;;;75.60;63.40;25.30;99.90;;;;;;4997351;28;9423;-62
2022/03/10 00:43:56;;;;;;;;;78.00;65.60;25.40;99.90;;;;;;5017009;28;8904;-63
2022/03/10 00:46:23;;;;;;;;;80.80;69.20;25.40;99.90;;;;;;5016336;28;8735;-62
2022/03/10 00:48:49;;;;;;;;;74.60;64.40;25.40;99.90;;;;;;5014890;28;8886;-62
2022/03/10 00:51:16;;;;;;;;;75.20;62.80;25.50;99.90;;;;;;5015709;28;8787;-61
2022/03/10 00:53:45;;;;;;;;;75.60;64.20;25.50;99.90;;;;;;5031312;28;8763;-61
2022/03/10 00:56:14;;;;;;;;;73.80;61.60;25.60;99.90;;;;;;5016928;28;8739;-62
2022/03/10 00:58:41;;;;;;;;;79.60;67.40;25.60;99.90;;;;;;4998027;28;8768;-62
2022/03/10 01:01:09;;;;;;;;;79.20;70.40;25.70;99.90;;;;;;4998315;28;8864;-62
2022/03/10 01:03:35;;;;;;;;;78.60;66.40;25.70;99.90;;;;;;4997813;28;8734;-62
2022/03/10 01:06:02;;;;;;;;;77.60;66.40;25.70;99.90;;;;;;5012895;28;9453;-62
2022/03/10 01:08:28;;;;;;;;;77.40;63.40;25.80;99.90;;;;;;5012481;28;8888;-62
2022/03/10 01:10:55;;;;;;;;;72.60;60.20;25.80;99.90;;;;;;4997860;28;8578;-63
2022/03/10 01:13:22;;;;;;;;;76.80;63.60;25.90;99.90;;;;;;5016128;28;8759;-61
2022/03/10 01:15:51;;;;;;;;;68.20;55.80;25.90;99.90;;;;;;5016757;28;8786;-62
2022/03/10 01:18:18;;;;;;;;;72.20;57.80;26.00;99.90;;;;;;5016117;28;8821;-63
2022/03/10 01:20:44;;;;;;;;;72.20;55.40;26.30;99.90;;;;;;5031582;28;8787;-69
2022/03/10 01:23:11;;;;;;;;;69.00;54.40;26.60;99.90;;;;;;5032090;28;8778;-69
2022/03/10 01:25:38;;;;;;;;;72.00;56.80;26.80;99.90;;;;;;5031710;28;8844;-67
2022/03/10 01:28:06;;;;;;;;;70.00;54.40;26.90;99.90;;;;;;5017735;28;8898;-67
2022/03/10 01:30:32;;;;;;;;;65.80;52.00;27.00;99.90;;;;;;5017568;28;8782;-68
2022/03/10 01:32:59;;;;;;;;;68.00;53.00;27.00;99.90;;;;;;5016893;28;8763;-68
2022/03/10 01:35:26;;;;;;;;;59.60;48.60;27.20;99.90;;;;;;5015623;28;8864;-70
2022/03/10 01:37:53;;;;;;;;;63.20;50.40;27.30;99.90;;;;;;5031709;28;8766;-70
2022/03/10 01:40:19;;;;;;;;;66.00;52.20;27.30;99.90;;;;;;5031986;28;8791;-67
2022/03/10 01:42:47;;;;;;;;;71.20;53.40;27.30;99.90;;;;;;5015234;28;8786;-66
2022/03/10 01:45:14;;;;;;;;;69.00;54.00;27.30;99.90;;;;;;5016587;28;8797;-68
2022/03/10 01:47:41;;;;;;;;;70.00;57.40;27.30;99.90;;;;;;5031066;28;8798;-68
2022/03/10 01:50:12;;;;;;;;;67.60;54.40;27.10;99.90;;;;;;5015067;28;8813;-67
2022/03/10 01:52:40;;;;;;;;;68.20;54.60;27.10;99.90;;;;;;5015599;28;8815;-67
2022/03/10 01:55:07;;;;;;;;;70.40;57.80;27.10;99.90;;;;;;5016937;28;8778;-67
2022/03/10 01:57:33;;;;;;;;;70.60;56.80;27.20;99.90;;;;;;5016963;28;9282;-68
2022/03/10 02:00:00;;;;;;;;;69.40;56.60;27.40;99.90;;;;;;5017022;28;8767;-67
2022/03/10 02:02:27;;;;;;;;;66.40;53.00;27.40;99.90;;;;;;5015731;28;8899;-67
2022/03/10 02:04:53;;;;;;;;;69.20;53.00;27.40;99.90;;;;;;5014219;28;8775;-67
2022/03/10 02:10:17;;;;;;;;;65.60;52.40;27.30;99.90;;;;;;5016532;28;8743;-67
2022/03/10 02:12:48;;;;;;;;;66.20;53.60;27.20;99.90;;;;;;5016544;28;8917;-67
2022/03/10 02:18:26;;;;;;;;;64.50;52.00;27.30;99.90;;;;;;4955972;28;8791;-67
2022/03/10 02:20:53;;;;;;;;;68.80;52.60;27.60;99.90;;;;;;4955993;28;8783;-67
2022/03/10 02:23:19;;;;;;;;;64.40;52.60;28.00;99.90;;;;;;4984579;28;8755;-65
2022/03/10 02:25:46;;;;;;;;;63.25;49.25;28.10;99.90;;;;;;5014544;28;8786;-66
2022/03/10 02:28:13;;;;;;;;;71.00;54.00;28.20;99.90;;;;;;5016680;28;9424;-67
2022/03/10 02:30:40;;;;;;;;;70.25;55.25;28.10;99.90;;;;;;5014580;28;8893;-67
2022/03/10 02:33:06;;;;;;;;;67.00;53.25;28.00;99.90;;;;;;5031358;28;8817;-67
2022/03/10 02:35:33;;;;;;;;;66.20;52.20;28.00;99.90;;;;;;5014361;28;8813;-66
2022/03/10 02:38:00;;;;;;;;;62.00;50.60;28.00;99.90;;;;;;5016123;28;8871;-66
2022/03/10 02:40:27;;;;;;;;;65.40;51.20;28.00;99.90;;;;;;5031383;28;8778;-66
2022/03/10 02:42:54;;;;;;;;;66.00;50.60;28.20;99.90;;;;;;5007191;28;8756;-66
2022/03/10 02:45:21;;;;;;;;;63.00;51.20;28.30;99.90;;;;;;5014772;28;9470;-66
2022/03/10 02:47:48;;;;;;;;;62.00;49.20;28.40;99.90;;;;;;5013835;28;9027;-67
2022/03/10 02:50:15;;;;;;;;;63.40;50.00;28.50;99.90;;;;;;4997871;28;8766;-68
2022/03/10 02:52:43;;;;;;;;;66.50;53.00;28.60;99.90;;;;;;5015609;28;8763;-62
2022/03/10 02:55:10;;;;;;;;;56.25;46.75;28.60;99.90;;;;;;5014175;28;8763;-59
2022/03/10 02:57:37;;;;;;;;;63.60;50.40;28.70;99.90;;;;;;5012642;28;8809;-60
2022/03/10 03:00:05;;;;;;;;;58.80;47.60;28.80;99.90;;;;;;5015440;28;8747;-59
2022/03/10 03:02:31;;;;;;;;;55.25;46.00;28.80;99.90;;;;;;5014425;28;8809;-59
2022/03/10 03:04:58;;;;;;;;;57.80;46.20;29.20;99.90;;;;;;5017532;28;9052;-59
2022/03/10 03:07:25;;;;;;;;;61.20;48.40;29.30;99.90;;;;;;5018009;28;8787;-57
2022/03/10 03:09:52;;;;;;;;;21.00;17.75;29.40;99.90;;;;;;5020240;28;8763;-59
2022/03/10 03:12:18;;;;;;;;;61.75;48.25;29.50;99.90;;;;;;5017678;28;8771;-59
2022/03/10 03:14:45;;;;;;;;;61.00;49.00;29.60;99.90;;;;;;5019712;28;8739;-58
2022/03/10 03:17:12;;;;;;;;;59.50;47.00;29.60;99.90;;;;;;5001777;28;8790;-59
2022/03/10 03:19:38;;;;;;;;;61.00;49.00;29.30;99.90;;;;;;5018670;28;8848;-58
2022/03/10 03:22:05;;;;;;;;;53.75;41.25;29.30;99.90;;;;;;5019897;28;8728;-59
2022/03/10 03:24:32;;;;;;;;;59.75;45.75;29.80;99.90;;;;;;5017412;28;8778;-59
2022/03/10 03:26:59;;;;;;;;;59.50;46.75;29.80;99.90;;;;;;5018793;28;9485;-59
2022/03/10 03:29:25;;;;;;;;;59.25;46.50;29.70;99.90;;;;;;5018907;28;8736;-61
2022/03/10 03:31:52;;;;;;;;;54.50;43.75;29.40;99.90;;;;;;5017360;28;8759;-59
2022/03/10 03:34:18;;;;;;;;;62.75;48.75;29.40;99.90;;;;;;5019105;28;8814;-58
2022/03/10 03:36:45;;;;;;;;;58.00;47.25;29.40;99.90;;;;;;5019192;28;8720;-59
2022/03/10 03:39:13;;;;;;;;;46.75;37.75;29.60;99.90;;;;;;5018723;28;8735;-59
2022/03/10 03:41:40;;;;;;;;;55.25;45.50;29.80;99.90;;;;;;5018160;28;8755;-58
2022/03/10 03:44:06;;;;;;;;;57.50;45.50;29.80;99.90;;;;;;5017998;28;8862;-58
2022/03/10 03:46:36;;;;;;;;;54.50;43.25;30.10;99.90;;;;;;5033651;28;8742;-59
2022/03/10 03:49:02;;;;;;;;;56.25;45.50;30.20;99.90;;;;;;5017787;28;8731;-60
2022/03/10 03:51:29;;;;;;;;;45.50;38.75;30.50;99.90;;;;;;5017742;28;8814;-59
2022/03/10 03:53:56;;;;;;;;;55.50;45.25;30.70;99.90;;;;;;5034098;28;8791;-59
2022/03/10 03:56:22;;;;;;;;;56.00;45.50;30.70;99.90;;;;;;5016663;28;8795;-59
2022/03/10 03:58:49;;;;;;;;;55.00;44.25;30.70;99.90;;;;;;5017292;28;8763;-59
2022/03/10 04:01:16;;;;;;;;;49.25;40.25;30.80;99.90;;;;;;5018938;28;8799;-59
2022/03/10 04:03:42;;;;;;;;;49.25;41.25;30.80;99.90;;;;;;5018743;28;8778;-58
2022/03/10 04:06:09;;;;;;;;;48.25;39.00;31.20;99.90;;;;;;5019301;28;8833;-60
2022/03/10 04:08:36;;;;;;;;;39.50;34.50;31.50;99.90;;;;;;5018543;28;8766;-59
2022/03/10 04:11:03;;;;;;;;;47.75;39.00;31.70;99.90;;;;;;5018430;28;8778;-59
2022/03/10 04:13:30;;;;;;;;;44.75;38.75;31.40;99.90;;;;;;5009098;28;8794;-59
2022/03/10 04:15:57;;;;;;;;;45.50;36.25;31.60;99.90;;;;;;5017898;28;8767;-61
2022/03/10 04:18:23;;;;;;;;;47.25;37.00;31.40;99.90;;;;;;5033405;28;8766;-60
2022/03/10 04:20:53;;;;;;;;;45.75;37.25;31.30;99.90;;;;;;5017135;28;8790;-59
2022/03/10 04:23:20;;;;;;;;;46.25;37.75;31.10;99.90;;;;;;5016813;28;8773;-60
2022/03/10 04:25:46;;;;;;;;;47.00;39.75;31.10;99.90;;;;;;5018777;28;8763;-68
2022/03/10 04:28:14;;;;;;;;;43.75;37.75;31.50;99.90;;;;;;5018236;28;8748;-61
2022/03/10 04:30:41;;;;;;;;;47.50;38.25;31.40;99.90;;;;;;5032636;28;8747;-60
2022/03/10 04:33:07;;;;;;;;;43.25;36.25;31.10;99.90;;;;;;5018545;28;8825;-61
2022/03/10 04:35:34;;;;;;;;;46.75;38.00;31.00;99.90;;;;;;5018259;28;8840;-61
2022/03/10 04:38:01;;;;;;;;;39.75;33.75;31.40;99.90;;;;;;5017105;28;8860;-60
2022/03/10 04:40:28;;;;;;;;;46.75;38.25;31.40;99.90;;;;;;5018324;28;8778;-61
2022/03/10 04:42:54;;;;;;;;;46.00;38.50;31.30;99.90;;;;;;5004225;28;8769;-61
2022/03/10 04:45:22;;;;;;;;;45.75;38.00;31.40;99.90;;;;;;4999555;28;8800;-61
2022/03/10 04:47:48;;;;;;;;;46.50;39.25;31.50;99.90;;;;;;4998800;28;8774;-61
2022/03/10 04:50:16;;;;;;;;;46.50;37.00;31.50;99.90;;;;;;4997220;28;8781;-61
2022/03/10 04:52:43;;;;;;;;;47.00;39.00;31.40;99.90;;;;;;4981725;28;8761;-61
2022/03/10 04:55:10;;;;;;;;;46.25;38.75;31.70;99.90;;;;;;4998879;28;8766;-60
2022/03/10 04:57:37;;;;;;;;;47.50;40.50;32.10;99.90;;;;;;5007727;28;8779;-61
2022/03/10 05:00:08;;;;;;;;;43.50;37.50;31.70;99.90;;;;;;5032597;28;8747;-62
2022/03/10 05:02:38;;;;;;;;;47.50;40.00;32.00;99.90;;;;;;5016622;28;8853;-61
2022/03/10 05:05:10;;;;;;;;;44.75;37.50;32.60;99.90;;;;;;5018095;28;8798;-65
2022/03/10 05:07:36;;;;;;;;;49.00;40.00;32.30;99.90;;;;;;5017715;28;8747;-60
2022/03/10 05:10:04;;;;;;;;;46.75;39.50;32.20;99.90;;;;;;5018591;28;8770;-60
2022/03/10 05:12:30;;;;;;;;;29.75;26.25;32.20;99.90;;;;;;5023199;28;8762;-63
2022/03/10 05:14:57;;;;;;;;;45.50;38.50;32.60;99.90;;;;;;4996384;28;8789;-62
2022/03/10 05:17:26;;;;;;;;;48.25;40.00;32.70;99.90;;;;;;4998063;28;9510;-63
2022/03/10 05:19:53;;;;;;;;;40.75;34.25;32.70;99.80;;;;;;4996618;28;8773;-61
2022/03/10 05:22:19;;;;;;;;;44.75;37.50;33.20;98.40;;;;;;4996440;28;8734;-61
2022/03/10 05:24:46;;;;;;;;;37.00;33.00;32.80;99.30;;;;;;4980366;28;8750;-61
2022/03/10 05:27:13;;;;;;;;;45.25;36.75;32.70;99.10;;;;;;5005129;28;8763;-61
2022/03/10 05:29:40;;;;;;;;;44.75;37.25;32.50;99.80;;;;;;5017085;28;9434;-62
2022/03/10 05:32:16;;;;;;;;;43.75;35.00;32.90;99.20;;;;;;5017672;28;8873;-62
2022/03/10 05:34:43;;;;;;;;;47.50;37.00;33.40;96.70;;;;;;5015715;28;8743;-61
2022/03/10 05:37:10;;;;;;;;;47.00;36.25;33.30;97.60;;;;;;5033332;28;8763;-61
2022/03/10 05:39:37;;;;;;;;;46.25;38.00;33.50;97.40;;;;;;5018180;28;8747;-60
2022/03/10 05:42:03;;;;;;;;;44.75;36.50;33.80;96.10;;;;;;5015417;28;8743;-61
2022/03/10 05:44:30;;;;;;;;;38.50;32.00;33.20;97.00;;;;;;5031664;28;8770;-61
2022/03/10 05:46:57;;;;;;;;;43.75;36.50;33.40;97.00;;;;;;5031898;28;8763;-61
2022/03/10 05:49:23;;;;;;;;;29.50;29.25;33.30;96.80;;;;;;5032400;28;8731;-61
2022/03/10 05:51:50;;;;;;;;;43.00;35.75;33.30;96.20;;;;;;5032276;28;8871;-67
2022/03/10 05:54:17;;;;;;;;;43.25;37.25;33.00;96.80;;;;;;5016433;28;8723;-66
2022/03/10 05:56:44;;;;;;;;;38.00;34.00;32.90;97.20;;;;;;5016263;28;8727;-68
2022/03/10 05:59:10;;;;;;;;;42.00;35.75;33.30;97.20;;;;;;5016011;28;8845;-69
2022/03/10 06:01:37;;;;;;;;;36.25;31.75;33.50;97.20;;;;;;5016317;28;8807;-67
2022/03/10 06:04:04;;;;;;;;;38.50;33.50;33.90;95.80;;;;;;5016996;28;8905;-70
2022/03/10 06:06:31;;;;;;;;;38.50;34.00;34.00;94.40;;;;;;5014040;28;8838;-68
2022/03/10 06:08:59;;;;;;;;;37.25;31.25;34.20;94.40;;;;;;5013013;28;8778;-68
2022/03/10 06:11:26;;;;;;;;;40.25;34.00;34.10;94.40;;;;;;5014626;28;8787;-68
2022/03/10 06:13:53;;;;;;;;;41.50;33.75;34.00;93.30;;;;;;5031687;28;8767;-70
2022/03/10 06:16:20;;;;;;;;;38.00;34.00;34.00;93.50;;;;;;5031223;28;8759;-68
2022/03/10 06:18:46;;;;;;;;;42.75;36.25;33.60;93.90;;;;;;5015151;28;8850;-69
2022/03/10 06:21:13;;;;;;;;;43.00;33.25;34.00;94.10;;;;;;5014923;28;8766;-69
2022/03/10 06:23:55;;;;;;;;;37.00;32.50;34.20;92.00;;;;;;5014513;28;8825;-68
2022/03/10 06:26:22;;;;;;;;;46.25;37.50;34.60;92.20;;;;;;5012894;28;8759;-69
2022/03/10 06:28:48;;;;;;;;;41.50;34.25;34.10;92.80;;;;;;5014237;28;9056;-69
2022/03/10 06:31:15;;;;;;;;;39.25;34.50;34.60;92.60;;;;;;5031213;28;8747;-69
2022/03/10 06:33:42;;;;;;;;;31.50;31.00;34.70;92.00;;;;;;5015874;28;8751;-69
2022/03/10 06:36:08;;;;;;;;;36.50;33.50;35.00;91.80;;;;;;5015286;28;8889;-70
2022/03/10 06:38:36;;;;;;;;;40.25;34.50;35.20;90.60;;;;;;5015816;28;8801;-69
2022/03/10 06:41:03;;;;;;;;;39.25;32.75;34.50;92.40;;;;;;5019802;28;8791;-69
2022/03/10 06:43:30;;;;;;;;;39.75;34.50;34.50;92.40;;;;;;5019626;28;8759;-69
2022/03/10 06:45:57;;;;;;;;;38.25;33.25;34.50;91.90;;;;;;5019595;28;8767;-69
2022/03/10 06:48:23;;;;;;;;;34.25;32.25;34.50;90.90;;;;;;5019729;28;8759;-68
2022/03/10 06:50:51;;;;;;;;;38.75;34.25;34.30;91.00;;;;;;5018148;28;8889;-69
2022/03/10 06:53:17;;;;;;;;;25.75;23.25;35.00;90.10;;;;;;5019411;28;8767;-68
2022/03/10 06:55:44;;;;;;;;;36.75;32.00;34.40;91.40;;;;;;5018974;28;8888;-69
2022/03/10 06:58:11;;;;;;;;;41.00;33.75;34.60;90.80;;;;;;5019507;28;8751;-69
2022/03/10 07:00:38;;;;;;;;;34.00;31.25;34.80;90.90;;;;;;5009927;28;8755;-69
2022/03/10 07:03:04;;;;;;;;;36.75;32.25;34.90;89.00;;;;;;5019975;28;8743;-70
2022/03/10 07:05:31;;;;;;;;;37.75;32.75;34.80;87.70;;;;;;5019723;28;8819;-69
2022/03/10 07:07:58;;;;;;;;;40.25;34.75;34.40;90.40;;;;;;5019684;28;8755;-69
2022/03/10 07:10:25;;;;;;;;;45.00;34.50;34.70;90.40;;;;;;5019552;28;8739;-65
2022/03/10 07:12:51;;;;;;;;;18.00;16.50;35.00;90.10;;;;;;5019825;28;8759;-69
2022/03/10 07:15:18;;;;;;;;;44.75;35.00;34.90;90.50;;;;;;5019615;28;9377;-68
2022/03/10 07:17:45;;;;;;;;;42.50;35.75;35.00;89.90;;;;;;5019610;28;8755;-69
2022/03/10 07:20:14;;;;;;;;;43.00;36.00;35.00;89.10;;;;;;5019467;28;8759;-69
2022/03/10 07:22:40;;;;;;;;;40.25;34.75;34.50;89.30;;;;;;5017872;28;8743;-70
2022/03/10 07:25:11;;;;;;;;;40.25;35.00;34.40;89.30;;;;;;5035416;28;8751;-69
2022/03/10 07:27:38;;;;;;;;;41.75;35.75;34.60;88.20;;;;;;5018942;28;8766;-69
2022/03/10 07:30:05;;;;;;;;;37.75;34.00;34.90;87.10;;;;;;5034422;28;8735;-69
2022/03/10 07:32:33;;;;;;;;;39.00;34.75;35.00;86.90;;;;;;5019163;28;8789;-69
2022/03/10 07:35:00;;;;;;;;;39.25;34.75;35.50;84.80;;;;;;5017903;28;8755;-69
2022/03/10 07:37:27;;;;;;;;;42.00;34.50;35.30;88.80;;;;;;5017535;28;8740;-68
2022/03/10 07:39:54;;;;;;;;;40.25;35.75;34.90;88.30;;;;;;5033981;28;8865;-69
2022/03/10 07:42:21;;;;;;;;;43.75;37.75;34.70;90.40;;;;;;5033912;28;9309;-69
2022/03/10 07:44:47;;;;;;;;;40.50;34.00;35.20;88.20;;;;;;5017660;28;8758;-69
2022/03/10 07:47:14;;;;;;;;;45.00;37.00;35.20;89.10;;;;;;5018718;28;8765;-69
2022/03/10 07:49:41;;;;;;;;;42.25;36.25;34.90;89.20;;;;;;5018129;28;8765;-69
2022/03/10 07:52:07;;;;;;;;;39.25;33.50;35.20;87.50;;;;;;5018088;28;8739;-70
2022/03/10 07:54:34;;;;;;;;;41.25;33.25;35.20;89.40;;;;;;5017564;28;8732;-69
2022/03/10 07:57:01;;;;;;;;;42.50;35.25;35.00;88.10;;;;;;5010620;28;8840;-69
2022/03/10 07:59:28;;;;;;;;;43.00;35.00;35.30;87.10;;;;;;4990561;28;8765;-69
2022/03/10 08:01:55;;;;;;;;;44.00;37.75;35.50;86.80;;;;;;4999202;28;8784;-69
2022/03/10 08:04:22;;;;;;;;;40.75;34.00;35.30;86.20;;;;;;4999788;28;8762;-69
2022/03/10 08:06:49;;;;;;;;;43.75;36.50;35.50;86.30;;;;;;4998676;28;8887;-69
2022/03/10 08:09:15;;;;;;;;;39.00;33.50;35.40;84.00;;;;;;4980595;28;8769;-70
2022/03/10 08:11:42;;;;;;;;;39.25;34.25;34.90;87.10;;;;;;5000447;28;8775;-69
2022/03/10 08:14:09;;;;;;;;;43.75;37.25;35.30;84.70;;;;;;5017032;28;8785;-69
2022/03/10 08:16:36;;;;;;;;;41.00;33.25;35.40;85.10;;;;;;5018541;28;8783;-69
2022/03/10 08:19:02;;;;;;;;;38.50;32.50;35.50;84.90;;;;;;5034059;28;8770;-70
2022/03/10 08:21:29;;;;;;;;;45.00;38.25;35.20;85.00;;;;;;5018206;28;8883;-69
2022/03/10 08:23:55;;;;;;;;;45.75;36.75;34.90;86.90;;;;;;5033170;28;8833;-69
2022/03/10 08:26:22;;;;;;;;;48.50;41.00;35.20;86.40;;;;;;5032892;28;8982;-70
2022/03/10 08:28:51;;;;;;;;;48.50;40.75;35.30;82.90;;;;;;5033327;28;8905;-70
2022/03/10 08:31:21;;;;;;;;;46.25;38.75;35.20;82.70;;;;;;5019088;28;8789;-69
2022/03/10 08:33:51;;;;;;;;;46.25;37.75;35.10;83.10;;;;;;5033610;28;8759;-68
2022/03/10 08:36:18;;;;;;;;;42.25;34.50;35.20;85.60;;;;;;5018308;28;8874;-67
2022/03/10 08:38:45;;;;;;;;;44.00;36.25;35.30;84.00;;;;;;5018382;28;8769;-69
2022/03/10 08:41:11;;;;;;;;;47.25;40.50;35.50;84.20;;;;;;5018753;28;8775;-70
2022/03/10 08:43:38;;;;;;;;;45.25;38.50;35.10;83.90;;;;;;5017770;28;8901;-68
2022/03/10 08:46:08;;;;;;;;;47.00;40.00;34.80;83.10;;;;;;5018988;28;8758;-67
2022/03/10 08:48:35;;;;;;;;;44.00;37.75;34.80;82.70;;;;;;5016198;28;8767;-68
2022/03/10 08:51:04;;;;;;;;;49.75;40.75;34.80;84.90;;;;;;5033001;28;8766;-68
2022/03/10 08:53:35;;;;;;;;;52.00;42.50;34.70;84.30;;;;;;5032845;28;8793;-69
2022/03/10 08:56:02;;;;;;;;;48.25;39.50;34.90;84.50;;;;;;5032796;28;8767;-68
2022/03/10 08:58:29;;;;;;;;;51.25;43.25;35.50;81.60;;;;;;5017535;28;8763;-70
2022/03/10 09:00:56;;;;;;;;;48.25;40.50;35.20;80.90;;;;;;5017760;28;8779;-68
2022/03/10 09:03:22;;;;;;;;;50.00;41.25;34.80;84.70;;;;;;5032992;28;10167;-70
2022/03/10 09:05:49;;;;;;;;;50.50;42.00;34.60;84.20;;;;;;5017816;28;8831;-69
2022/03/10 09:08:16;;;;;;;;;51.75;42.75;34.70;83.40;;;;;;5017887;28;8794;-67
2022/03/10 09:10:42;;;;;;;;;16.75;10.75;34.80;83.20;;;;;;5016316;28;9442;-67
2022/03/10 09:13:11;;;;;;;;;53.75;44.00;34.60;83.10;;;;;;5033173;28;8767;-69
2022/03/10 09:15:38;;;;;;;;;51.00;43.00;34.40;84.70;;;;;;4991276;28;8853;-69
2022/03/10 09:18:04;;;;;;;;;52.00;43.00;34.10;85.90;;;;;;5016349;28;8763;-67
2022/03/10 09:20:31;;;;;;;;;55.50;44.00;33.90;86.10;;;;;;5015845;28;8775;-69
2022/03/10 09:22:58;;;;;;;;;50.50;42.00;33.70;86.00;;;;;;5017288;28;9044;-69
2022/03/10 09:25:27;;;;;;;;;51.75;42.00;33.70;86.30;;;;;;4999738;28;8770;-68
2022/03/10 09:27:54;;;;;;;;;54.25;45.00;33.70;89.30;;;;;;5018256;28;8748;-70
2022/03/10 09:30:20;;;;;;;;;48.75;40.50;33.60;89.80;;;;;;5017294;28;9088;-70
2022/03/10 09:32:47;;;;;;;;;51.75;43.00;33.50;90.70;;;;;;5017332;28;8797;-69
2022/03/10 09:35:15;;;;;;;;;53.25;44.00;33.50;92.40;;;;;;5017572;28;8859;-68
2022/03/10 09:37:42;;;;;;;;;53.75;42.00;33.60;92.10;;;;;;5032103;28;8763;-69
2022/03/10 09:40:09;;;;;;;;;56.50;45.75;33.90;91.80;;;;;;5017956;28;8736;-69
2022/03/10 09:42:36;;;;;;;;;52.00;42.50;34.00;91.90;;;;;;5016788;28;8751;-68
2022/03/10 09:45:10;;;;;;;;;54.50;43.75;33.60;92.20;;;;;;5017267;28;8832;-71
2022/03/10 09:47:38;;;;;;;;;53.25;42.25;33.40;93.30;;;;;;5015300;28;8779;-67
2022/03/10 09:50:05;;;;;;;;;52.00;43.00;33.40;94.20;;;;;;5017312;28;8889;-71
2022/03/10 09:52:32;;;;;;;;;50.75;43.00;33.30;94.50;;;;;;5015295;28;8778;-68
2022/03/10 09:54:59;;;;;;;;;52.75;43.50;33.10;93.50;;;;;;5032908;28;9376;-69
2022/03/10 09:57:26;;;;;;;;;53.00;44.50;32.90;93.60;;;;;;5022309;28;8840;-72
2022/03/10 09:59:59;;;;;;;;;56.00;45.25;32.90;93.40;;;;;;4995685;28;8754;-72
2022/03/10 10:02:27;;;;;;;;;48.25;41.00;33.00;92.90;;;;;;4996443;28;9209;-71
2022/03/10 10:04:55;;;;;;;;;55.25;44.25;33.00;92.80;;;;;;4997452;28;8914;-71
2022/03/10 10:07:25;;;;;;;;;57.00;45.25;32.90;92.80;;;;;;4998129;28;8912;-71
2022/03/10 10:09:56;;;;;;;;;56.50;45.75;32.90;93.20;;;;;;4997058;28;9384;-72
2022/03/10 10:12:28;;;;;;;;;57.50;47.00;32.90;93.30;;;;;;5003828;28;8817;-72
2022/03/10 10:14:58;;;;;;;;;52.50;41.75;33.00;94.70;;;;;;5015563;28;9486;-72
2022/03/10 10:17:29;;;;;;;;;55.25;43.00;32.90;95.70;;;;;;5031395;28;9144;-72
2022/03/10 10:19:59;;;;;;;;;56.50;45.50;32.80;96.60;;;;;;5016837;28;8825;-72
2022/03/10 10:22:27;;;;;;;;;44.75;37.75;32.80;96.30;;;;;;5016669;28;8727;-72
2022/03/10 10:24:55;;;;;;;;;55.50;44.75;32.80;95.30;;;;;;5017224;28;8739;-72
2022/03/10 10:27:23;;;;;;;;;55.25;45.50;32.80;94.40;;;;;;5022901;28;8748;-72
2022/03/10 10:29:51;;;;;;;;;56.75;46.25;32.80;94.80;;;;;;4996981;28;9481;-72
2022/03/10 10:32:33;;;;;;;;;57.25;48.25;32.70;95.20;;;;;;4979442;28;8750;-71
2022/03/10 10:35:01;;;;;;;;;59.50;48.25;32.70;95.90;;;;;;4996796;28;8769;-72
2022/03/10 10:37:28;;;;;;;;;62.25;46.00;32.60;96.50;;;;;;4995903;28;8730;-71
2022/03/10 10:39:56;;;;;;;;;63.50;49.00;32.60;97.10;;;;;;4997323;28;8758;-72
2022/03/10 10:42:42;;;;;;;;;61.00;49.75;32.50;97.40;;;;;;5005267;28;8758;-72
2022/03/10 10:45:28;;;;;;;;;62.80;49.80;32.50;97.60;;;;;;5016419;28;8754;-72
2022/03/10 10:47:59;;;;;;;;;62.60;49.80;32.50;97.50;;;;;;5016609;28;9486;-72
2022/03/10 10:50:27;;;;;;;;;60.20;48.40;32.40;97.60;;;;;;5016380;28;8790;-72
2022/03/10 10:52:54;;;;;;;;;57.50;47.75;32.30;97.60;;;;;;5031181;28;8791;-72
2022/03/10 10:55:21;;;;;;;;;59.80;47.20;32.30;96.80;;;;;;5016638;28;8739;-72
2022/03/10 10:57:50;;;;;;;;;59.80;47.40;32.30;97.10;;;;;;5019469;28;8746;-72
2022/03/10 11:00:17;;;;;;;;;62.40;50.80;32.20;96.80;;;;;;4979928;28;8760;-71
2022/03/10 11:02:44;;;;;;;;;60.50;49.00;32.20;97.40;;;;;;4996552;28;9615;-72
2022/03/10 11:05:14;;;;;;;;;61.75;50.00;32.10;97.50;;;;;;4996832;28;8829;-72
2022/03/10 11:07:41;;;;;;;;;64.40;51.80;32.10;97.50;;;;;;4996639;28;8742;-72
2022/03/10 11:10:09;;;;;;;;;62.75;48.25;32.10;97.40;;;;;;4997406;28;8754;-72
2022/03/10 11:12:39;;;;;;;;;62.60;48.80;32.00;96.90;;;;;;5006562;28;8759;-72
2022/03/10 11:15:08;;;;;;;;;61.40;48.00;32.00;97.10;;;;;;5016233;28;8805;-72
2022/03/10 11:17:34;;;;;;;;;57.25;45.50;31.90;97.10;;;;;;5015916;28;8751;-72
2022/03/10 11:20:03;;;;;;;;;57.60;46.20;31.90;97.00;;;;;;5031288;28;8747;-72
2022/03/10 11:22:52;;;;;;;;;59.00;45.80;31.90;97.00;;;;;;5031274;28;8735;-73
2022/03/10 11:25:45;;;;;;;;;59.00;45.80;31.90;97.10;;;;;;5034090;28;8755;-71
2022/03/10 11:28:13;;;;;;;;;59.20;46.40;31.90;97.40;;;;;;5019971;28;8770;-72
2022/03/10 11:30:40;;;;;;;;;62.60;49.00;31.80;97.80;;;;;;5018259;28;8751;-72
2022/03/10 11:33:12;;;;;;;;;64.60;50.80;31.70;98.10;;;;;;5019613;28;8793;-72
2022/03/10 11:35:49;;;;;;;;;60.20;48.00;31.70;99.00;;;;;;5019419;28;8822;-72
2022/03/10 11:38:16;;;;;;;;;63.20;49.60;31.60;99.10;;;;;;5016076;28;8952;-72
2022/03/10 11:40:54;;;;;;;;;61.40;50.00;31.60;98.40;;;;;;5028019;28;8731;-71
2022/03/10 11:43:41;;;;;;;;;62.20;51.00;31.50;98.00;;;;;;5018098;28;8731;-71
2022/03/10 11:46:18;;;;;;;;;65.40;51.00;31.50;98.00;;;;;;5019864;28;8755;-72
2022/03/10 11:49:00;;;;;;;;;61.40;49.20;31.50;98.10;;;;;;5019707;28;8759;-72
2022/03/10 11:51:43;;;;;;;;;60.40;48.60;31.50;98.20;;;;;;5033529;28;8802;-72
2022/03/10 11:54:10;;;;;;;;;64.20;51.00;31.50;98.20;;;;;;5018877;28;8809;-71
2022/03/10 11:56:50;;;;;;;;;61.80;48.80;31.60;97.80;;;;;;5019222;28;8813;-71
2022/03/10 11:59:44;;;;;;;;;60.20;48.40;31.50;98.90;;;;;;5019437;28;8767;-70
2022/03/10 12:02:47;;;;;;;;;64.60;50.80;31.40;99.70;;;;;;5019075;28;8925;-72
2022/03/10 12:05:13;;;;;;;;;60.60;48.00;31.30;99.70;;;;;;5034328;28;8803;-72
2022/03/10 12:07:43;;;;;;;;;60.60;48.80;31.30;99.50;;;;;;5033978;28;8747;-71
2022/03/10 12:10:16;;;;;;;;;63.20;49.80;31.30;99.20;;;;;;5018208;28;8779;-72
2022/03/10 12:12:45;;;;;;;;;59.00;48.20;31.20;99.90;;;;;;5033842;28;8803;-71
2022/03/10 12:15:27;;;;;;;;;64.00;50.00;31.10;99.90;;;;;;5019207;28;8795;-72
2022/03/10 12:17:55;;;;;;;;;65.00;52.00;30.90;99.90;;;;;;5019211;28;8872;-72
2022/03/10 12:20:25;;;;;;;;;67.60;56.00;30.80;99.90;;;;;;5018419;28;8902;-71
2022/03/10 12:23:12;;;;;;;;;71.40;55.40;30.90;99.90;;;;;;5018604;28;8996;-71
2022/03/10 12:25:41;;;;;;;;;64.80;51.60;30.80;99.90;;;;;;5017479;28;8832;-72
2022/03/10 12:28:09;;;;;;;;;69.00;54.80;30.60;99.90;;;;;;5018750;28;8767;-72
2022/03/10 12:30:40;;;;;;;;;66.40;52.00;30.50;99.90;;;;;;5018310;28;8781;-72
2022/03/10 12:33:09;;;;;;;;;68.60;55.40;30.40;99.90;;;;;;5018470;28;8818;-72
2022/03/10 12:35:37;;;;;;;;;72.80;58.60;30.40;99.90;;;;;;5017067;28;9123;-71
2022/03/10 12:38:05;;;;;;;;;68.80;56.80;30.50;99.90;;;;;;5018496;28;8759;-72
2022/03/10 12:40:33;;;;;;;;;68.40;56.80;30.60;99.90;;;;;;5033404;28;8763;-72
2022/03/10 12:43:00;;;;;;;;;73.80;61.40;30.50;99.90;;;;;;5017504;28;9476;-72
2022/03/10 12:45:27;;;;;;;;;73.20;62.40;30.50;99.90;;;;;;5018179;28;8794;-72
2022/03/10 12:48:05;;;;;;;;;68.00;55.00;30.50;99.90;;;;;;5033394;28;8767;-72